sensor_id;sensor_type;location;lat;lon;timestamp;pressure;altitude;pressure_sealevel;temperature;humidity
56604;BME280;42486;47.478;19.036;2023-04-27T00:00:46;100382.28;;;4.34;82.80
56604;BME280;42486;47.478;19.036;2023-04-27T00:03:51;100391.53;;;4.38;82.27
56604;BME280;42486;47.478;19.036;2023-04-27T00:06:58;100388.06;;;4.39;84.33
56604;BME280;42486;47.478;19.036;2023-04-27T00:10:02;100389.81;;;4.39;84.24
56604;BME280;42486;47.478;19.036;2023-04-27T00:13:06;100384.66;;;4.39;83.23
56604;BME280;42486;47.478;19.036;2023-04-27T00:16:09;100397.50;;;4.40;83.52
56604;BME280;42486;47.478;19.036;2023-04-27T00:19:13;100389.16;;;4.53;84.58
56604;BME280;42486;47.478;19.036;2023-04-27T00:22:19;100392.56;;;4.53;82.71
56604;BME280;42486;47.478;19.036;2023-04-27T00:25:21;100391.91;;;4.67;84.49
56604;BME280;42486;47.478;19.036;2023-04-27T00:28:28;100392.13;;;4.62;83.92
56604;BME280;42486;47.478;19.036;2023-04-27T00:31:33;100393.41;;;4.54;84.06
56604;BME280;42486;47.478;19.036;2023-04-27T00:34:41;100396.97;;;4.51;82.61
56604;BME280;42486;47.478;19.036;2023-04-27T00:37:49;100393.41;;;4.54;82.31
56604;BME280;42486;47.478;19.036;2023-04-27T00:41:00;100389.31;;;4.50;82.47
56604;BME280;42486;47.478;19.036;2023-04-27T00:44:07;100386.09;;;4.45;82.43
56604;BME280;42486;47.478;19.036;2023-04-27T00:47:10;100385.69;;;4.35;83.53
56604;BME280;42486;47.478;19.036;2023-04-27T00:50:26;100381.66;;;4.29;84.84
56604;BME280;42486;47.478;19.036;2023-04-27T00:53:32;100377.41;;;4.28;86.15
56604;BME280;42486;47.478;19.036;2023-04-27T00:56:37;100383.03;;;4.17;86.61
56604;BME280;42486;47.478;19.036;2023-04-27T00:59:39;100383.41;;;4.10;86.38
56604;BME280;42486;47.478;19.036;2023-04-27T01:02:46;100386.00;;;4.10;87.55
56604;BME280;42486;47.478;19.036;2023-04-27T01:05:51;100377.34;;;4.11;87.60
56604;BME280;42486;47.478;19.036;2023-04-27T01:08:55;100378.94;;;4.13;87.10
56604;BME280;42486;47.478;19.036;2023-04-27T01:11:59;100377.03;;;4.17;86.35
56604;BME280;42486;47.478;19.036;2023-04-27T01:15:13;100386.00;;;4.29;83.52
56604;BME280;42486;47.478;19.036;2023-04-27T01:18:26;100382.87;;;4.39;82.75
56604;BME280;42486;47.478;19.036;2023-04-27T01:21:35;100384.03;;;4.34;83.17
56604;BME280;42486;47.478;19.036;2023-04-27T01:24:46;100386.09;;;4.45;81.00
56604;BME280;42486;47.478;19.036;2023-04-27T01:28:03;100391.69;;;4.35;82.13
56604;BME280;42486;47.478;19.036;2023-04-27T01:31:09;100382.31;;;4.33;81.10
56604;BME280;42486;47.478;19.036;2023-04-27T01:34:17;100391.91;;;4.31;80.98
56604;BME280;42486;47.478;19.036;2023-04-27T01:37:21;100394.50;;;4.31;81.70
56604;BME280;42486;47.478;19.036;2023-04-27T01:40:30;100391.06;;;4.30;82.59
56604;BME280;42486;47.478;19.036;2023-04-27T01:43:35;100398.31;;;4.41;82.42
56604;BME280;42486;47.478;19.036;2023-04-27T01:46:41;100404.06;;;4.48;81.20
56604;BME280;42486;47.478;19.036;2023-04-27T01:49:48;100402.44;;;4.45;81.42
56604;BME280;42486;47.478;19.036;2023-04-27T01:52:53;100403.34;;;4.44;81.53
56604;BME280;42486;47.478;19.036;2023-04-27T01:55:59;100397.31;;;4.26;82.96
56604;BME280;42486;47.478;19.036;2023-04-27T01:59:09;100400.03;;;4.23;82.80
56604;BME280;42486;47.478;19.036;2023-04-27T02:02:20;100400.44;;;4.14;83.68
56604;BME280;42486;47.478;19.036;2023-04-27T02:05:26;100400.53;;;4.12;86.56
56604;BME280;42486;47.478;19.036;2023-04-27T02:08:31;100406.59;;;4.11;85.96
56604;BME280;42486;47.478;19.036;2023-04-27T02:11:35;100407.53;;;4.10;86.56
56604;BME280;42486;47.478;19.036;2023-04-27T02:14:43;100406.94;;;4.04;86.11
56604;BME280;42486;47.478;19.036;2023-04-27T02:17:52;100407.94;;;4.01;87.11
56604;BME280;42486;47.478;19.036;2023-04-27T02:20:56;100414.16;;;3.97;86.95
56604;BME280;42486;47.478;19.036;2023-04-27T02:24:04;100412.69;;;3.91;87.72
56604;BME280;42486;47.478;19.036;2023-04-27T02:27:11;100412.84;;;3.88;88.05
56604;BME280;42486;47.478;19.036;2023-04-27T02:30:17;100418.97;;;3.86;88.98
56604;BME280;42486;47.478;19.036;2023-04-27T02:33:26;100414.69;;;3.85;88.15
56604;BME280;42486;47.478;19.036;2023-04-27T02:36:42;100424.25;;;3.83;87.56
56604;BME280;42486;47.478;19.036;2023-04-27T02:39:45;100419.16;;;3.62;88.62
56604;BME280;42486;47.478;19.036;2023-04-27T02:42:59;100428.75;;;3.59;88.72
56604;BME280;42486;47.478;19.036;2023-04-27T02:46:11;100433.19;;;3.57;92.70
56604;BME280;42486;47.478;19.036;2023-04-27T02:49:31;100434.19;;;3.52;92.11
56604;BME280;42486;47.478;19.036;2023-04-27T02:52:44;100439.63;;;3.46;92.65
56604;BME280;42486;47.478;19.036;2023-04-27T02:55:47;100436.78;;;3.52;92.53
56604;BME280;42486;47.478;19.036;2023-04-27T02:58:55;100443.44;;;3.38;90.89
56604;BME280;42486;47.478;19.036;2023-04-27T03:02:07;100445.50;;;3.29;89.59
56604;BME280;42486;47.478;19.036;2023-04-27T03:05:13;100449.63;;;3.13;89.42
56604;BME280;42486;47.478;19.036;2023-04-27T03:08:30;100446.69;;;3.00;91.17
56604;BME280;42486;47.478;19.036;2023-04-27T03:11:35;100447.75;;;2.96;92.39
56604;BME280;42486;47.478;19.036;2023-04-27T03:14:42;100448.00;;;2.90;93.51
56604;BME280;42486;47.478;19.036;2023-04-27T03:17:51;100455.00;;;2.86;94.56
56604;BME280;42486;47.478;19.036;2023-04-27T03:21:07;100449.44;;;2.75;95.44
56604;BME280;42486;47.478;19.036;2023-04-27T03:24:26;100451.75;;;2.81;96.83
56604;BME280;42486;47.478;19.036;2023-04-27T03:27:34;100461.19;;;2.82;97.35
56604;BME280;42486;47.478;19.036;2023-04-27T03:30:56;100455.13;;;2.83;97.98
56604;BME280;42486;47.478;19.036;2023-04-27T03:34:08;100459.19;;;2.89;95.16
56604;BME280;42486;47.478;19.036;2023-04-27T03:37:21;100454.69;;;2.94;96.10
56604;BME280;42486;47.478;19.036;2023-04-27T03:40:36;100468.09;;;2.82;94.72
56604;BME280;42486;47.478;19.036;2023-04-27T03:43:46;100469.16;;;2.76;94.07
56604;BME280;42486;47.478;19.036;2023-04-27T03:47:07;100471.81;;;2.75;94.96
56604;BME280;42486;47.478;19.036;2023-04-27T03:50:15;100465.22;;;2.68;93.52
56604;BME280;42486;47.478;19.036;2023-04-27T03:53:24;100470.66;;;2.60;94.29
56604;BME280;42486;47.478;19.036;2023-04-27T03:56:31;100482.78;;;2.58;95.93
56604;BME280;42486;47.478;19.036;2023-04-27T03:59:35;100483.53;;;2.61;96.35
56604;BME280;42486;47.478;19.036;2023-04-27T04:02:40;100483.28;;;2.68;97.64
56604;BME280;42486;47.478;19.036;2023-04-27T04:05:47;100488.59;;;2.63;95.82
56604;BME280;42486;47.478;19.036;2023-04-27T04:08:58;100488.56;;;2.64;95.70
56604;BME280;42486;47.478;19.036;2023-04-27T04:12:10;100490.22;;;2.65;94.95
56604;BME280;42486;47.478;19.036;2023-04-27T04:15:42;100490.84;;;2.72;96.12
56604;BME280;42486;47.478;19.036;2023-04-27T04:19:02;100502.47;;;2.82;95.98
56604;BME280;42486;47.478;19.036;2023-04-27T04:22:10;100500.75;;;2.83;95.90
56604;BME280;42486;47.478;19.036;2023-04-27T04:25:17;100503.91;;;2.90;96.30
56604;BME280;42486;47.478;19.036;2023-04-27T04:28:30;100504.44;;;2.98;95.05
56604;BME280;42486;47.478;19.036;2023-04-27T04:31:46;100510.47;;;3.19;95.55
56604;BME280;42486;47.478;19.036;2023-04-27T04:35:12;100509.22;;;3.29;94.96
56604;BME280;42486;47.478;19.036;2023-04-27T04:38:22;100506.78;;;3.46;93.81
56604;BME280;42486;47.478;19.036;2023-04-27T04:41:30;100515.75;;;3.58;93.11
56604;BME280;42486;47.478;19.036;2023-04-27T04:44:39;100516.41;;;3.84;92.95
56604;BME280;42486;47.478;19.036;2023-04-27T04:47:48;100516.47;;;5.32;85.71
56604;BME280;42486;47.478;19.036;2023-04-27T04:50:55;100522.84;;;7.07;77.07
56604;BME280;42486;47.478;19.036;2023-04-27T04:54:10;100534.09;;;9.37;62.15
56604;BME280;42486;47.478;19.036;2023-04-27T04:57:19;100536.81;;;11.11;54.94
56604;BME280;42486;47.478;19.036;2023-04-27T05:00:28;100546.25;;;12.63;49.13
56604;BME280;42486;47.478;19.036;2023-04-27T05:03:33;100549.66;;;13.41;46.83
56604;BME280;42486;47.478;19.036;2023-04-27T05:06:40;100541.41;;;11.56;50.20
56604;BME280;42486;47.478;19.036;2023-04-27T05:09:44;100547.81;;;10.04;55.52
56604;BME280;42486;47.478;19.036;2023-04-27T05:12:47;100548.91;;;9.36;59.44
56604;BME280;42486;47.478;19.036;2023-04-27T05:15:56;100548.13;;;9.74;57.86
56604;BME280;42486;47.478;19.036;2023-04-27T05:19:00;100559.06;;;12.45;49.73
56604;BME280;42486;47.478;19.036;2023-04-27T05:22:06;100569.91;;;14.94;43.42
56604;BME280;42486;47.478;19.036;2023-04-27T05:25:10;100574.75;;;14.89;41.75
56604;BME280;42486;47.478;19.036;2023-04-27T05:28:16;100577.41;;;14.27;44.64
56604;BME280;42486;47.478;19.036;2023-04-27T05:31:21;100578.56;;;13.62;46.19
56604;BME280;42486;47.478;19.036;2023-04-27T05:34:27;100582.78;;;13.10;47.56
56604;BME280;42486;47.478;19.036;2023-04-27T05:37:35;100574.19;;;12.53;48.86
56604;BME280;42486;47.478;19.036;2023-04-27T05:41:02;100581.59;;;13.14;45.15
56604;BME280;42486;47.478;19.036;2023-04-27T05:44:10;100586.56;;;13.60;44.11
56604;BME280;42486;47.478;19.036;2023-04-27T05:47:28;100586.25;;;13.42;44.88
56604;BME280;42486;47.478;19.036;2023-04-27T05:50:36;100592.38;;;13.85;44.30
56604;BME280;42486;47.478;19.036;2023-04-27T05:53:54;100600.03;;;15.11;38.62
56604;BME280;42486;47.478;19.036;2023-04-27T05:57:16;100598.78;;;14.13;37.44
56604;BME280;42486;47.478;19.036;2023-04-27T06:00:35;100604.03;;;13.71;37.80
56604;BME280;42486;47.478;19.036;2023-04-27T06:03:39;100603.69;;;14.89;36.17
56604;BME280;42486;47.478;19.036;2023-04-27T06:06:49;100609.06;;;15.37;34.52
56604;BME280;42486;47.478;19.036;2023-04-27T06:09:54;100605.91;;;14.01;37.21
56604;BME280;42486;47.478;19.036;2023-04-27T06:12:58;100602.63;;;12.80;39.03
56604;BME280;42486;47.478;19.036;2023-04-27T06:16:05;100601.78;;;12.23;41.25
56604;BME280;42486;47.478;19.036;2023-04-27T06:19:09;100608.47;;;12.27;40.36
56604;BME280;42486;47.478;19.036;2023-04-27T06:22:12;100601.47;;;12.50;40.26
56604;BME280;42486;47.478;19.036;2023-04-27T06:25:20;100614.41;;;12.52;39.36
56604;BME280;42486;47.478;19.036;2023-04-27T06:28:29;100615.66;;;12.01;39.55
56604;BME280;42486;47.478;19.036;2023-04-27T06:31:33;100612.63;;;12.07;40.63
56604;BME280;42486;47.478;19.036;2023-04-27T06:34:38;100618.16;;;11.43;40.47
56604;BME280;42486;47.478;19.036;2023-04-27T06:37:51;100621.16;;;11.74;42.17
56604;BME280;42486;47.478;19.036;2023-04-27T06:40:57;100623.47;;;12.37;40.58
56604;BME280;42486;47.478;19.036;2023-04-27T06:44:02;100621.66;;;12.15;37.02
56604;BME280;42486;47.478;19.036;2023-04-27T06:47:07;100620.41;;;11.61;39.99
56604;BME280;42486;47.478;19.036;2023-04-27T06:50:18;100627.25;;;11.51;40.69
56604;BME280;42486;47.478;19.036;2023-04-27T06:53:21;100620.13;;;11.29;41.95
56604;BME280;42486;47.478;19.036;2023-04-27T06:56:27;100616.00;;;11.97;40.60
56604;BME280;42486;47.478;19.036;2023-04-27T06:59:32;100622.41;;;12.62;38.40
56604;BME280;42486;47.478;19.036;2023-04-27T07:02:36;100629.72;;;14.82;35.22
56604;BME280;42486;47.478;19.036;2023-04-27T07:05:43;100630.66;;;15.22;37.24
56604;BME280;42486;47.478;19.036;2023-04-27T07:08:48;100637.31;;;16.03;31.89
56604;BME280;42486;47.478;19.036;2023-04-27T07:11:51;100636.41;;;16.42;30.51
56604;BME280;42486;47.478;19.036;2023-04-27T07:14:53;100636.81;;;18.54;28.86
56604;BME280;42486;47.478;19.036;2023-04-27T07:17:56;100646.59;;;20.84;25.09
56604;BME280;42486;47.478;19.036;2023-04-27T07:21:01;100648.97;;;22.55;22.46
56604;BME280;42486;47.478;19.036;2023-04-27T07:24:07;100645.16;;;21.12;23.48
56604;BME280;42486;47.478;19.036;2023-04-27T07:27:10;100655.31;;;22.39;22.94
56604;BME280;42486;47.478;19.036;2023-04-27T07:30:13;100668.28;;;24.02;21.83
56604;BME280;42486;47.478;19.036;2023-04-27T07:33:19;100669.78;;;24.11;20.13
56604;BME280;42486;47.478;19.036;2023-04-27T07:36:26;100667.19;;;24.25;20.20
56604;BME280;42486;47.478;19.036;2023-04-27T07:39:48;100668.66;;;23.56;20.42
56604;BME280;42486;47.478;19.036;2023-04-27T07:42:55;100663.63;;;20.58;23.16
56604;BME280;42486;47.478;19.036;2023-04-27T07:46:00;100663.09;;;21.65;22.34
56604;BME280;42486;47.478;19.036;2023-04-27T07:49:10;100663.19;;;20.14;23.21
56604;BME280;42486;47.478;19.036;2023-04-27T07:52:17;100654.59;;;19.79;23.44
56604;BME280;42486;47.478;19.036;2023-04-27T07:55:22;100658.03;;;20.20;23.00
56604;BME280;42486;47.478;19.036;2023-04-27T07:58:25;100651.31;;;21.05;22.62
56604;BME280;42486;47.478;19.036;2023-04-27T08:01:28;100652.34;;;22.93;21.08
56604;BME280;42486;47.478;19.036;2023-04-27T08:04:32;100654.91;;;20.81;21.64
56604;BME280;42486;47.478;19.036;2023-04-27T08:07:45;100654.13;;;19.17;24.59
56604;BME280;42486;47.478;19.036;2023-04-27T08:10:47;100652.41;;;18.65;23.86
56604;BME280;42486;47.478;19.036;2023-04-27T08:13:51;100650.16;;;17.28;26.22
56604;BME280;42486;47.478;19.036;2023-04-27T08:16:58;100642.75;;;15.73;29.54
56604;BME280;42486;47.478;19.036;2023-04-27T08:20:05;100641.69;;;15.15;30.17
56604;BME280;42486;47.478;19.036;2023-04-27T08:23:09;100633.84;;;14.75;30.06
56604;BME280;42486;47.478;19.036;2023-04-27T08:26:16;100634.16;;;14.30;29.81
56604;BME280;42486;47.478;19.036;2023-04-27T08:29:27;100638.66;;;14.49;30.53
56604;BME280;42486;47.478;19.036;2023-04-27T08:32:30;100632.69;;;14.16;30.49
56604;BME280;42486;47.478;19.036;2023-04-27T08:35:34;100634.78;;;14.22;30.88
56604;BME280;42486;47.478;19.036;2023-04-27T08:38:40;100638.13;;;14.03;31.57
56604;BME280;42486;47.478;19.036;2023-04-27T08:41:43;100631.44;;;14.41;29.80
56604;BME280;42486;47.478;19.036;2023-04-27T08:44:50;100637.28;;;13.82;32.04
56604;BME280;42486;47.478;19.036;2023-04-27T08:47:54;100637.03;;;14.06;32.86
56604;BME280;42486;47.478;19.036;2023-04-27T08:50:58;100638.53;;;14.50;32.53
56604;BME280;42486;47.478;19.036;2023-04-27T08:54:02;100633.63;;;14.97;33.25
56604;BME280;42486;47.478;19.036;2023-04-27T08:57:13;100638.44;;;14.83;29.88
56604;BME280;42486;47.478;19.036;2023-04-27T09:00:18;100634.25;;;14.49;31.46
56604;BME280;42486;47.478;19.036;2023-04-27T09:03:27;100637.69;;;13.98;31.25
56604;BME280;42486;47.478;19.036;2023-04-27T09:06:34;100627.06;;;14.00;32.89
56604;BME280;42486;47.478;19.036;2023-04-27T09:10:00;100618.53;;;13.86;32.79
56604;BME280;42486;47.478;19.036;2023-04-27T09:13:05;100619.53;;;13.74;32.36
56604;BME280;42486;47.478;19.036;2023-04-27T09:16:11;100620.81;;;13.80;34.67
56604;BME280;42486;47.478;19.036;2023-04-27T09:19:26;100620.97;;;13.78;33.64
56604;BME280;42486;47.478;19.036;2023-04-27T09:22:30;100615.47;;;13.49;32.52
56604;BME280;42486;47.478;19.036;2023-04-27T09:25:36;100620.81;;;13.04;33.68
56604;BME280;42486;47.478;19.036;2023-04-27T09:28:39;100617.53;;;13.66;33.64
56604;BME280;42486;47.478;19.036;2023-04-27T09:31:42;100614.22;;;13.85;33.66
56604;BME280;42486;47.478;19.036;2023-04-27T09:34:45;100616.19;;;14.04;32.45
56604;BME280;42486;47.478;19.036;2023-04-27T09:37:54;100600.66;;;13.80;34.28
56604;BME280;42486;47.478;19.036;2023-04-27T09:41:03;100597.81;;;13.93;31.21
56604;BME280;42486;47.478;19.036;2023-04-27T09:44:09;100594.53;;;13.91;32.74
56604;BME280;42486;47.478;19.036;2023-04-27T09:47:17;100596.94;;;14.04;31.20
56604;BME280;42486;47.478;19.036;2023-04-27T09:50:20;100601.62;;;14.00;31.07
56604;BME280;42486;47.478;19.036;2023-04-27T09:53:28;100600.22;;;13.75;31.33
56604;BME280;42486;47.478;19.036;2023-04-27T09:56:54;100593.88;;;13.57;33.24
56604;BME280;42486;47.478;19.036;2023-04-27T10:00:10;100595.41;;;13.59;34.31
56604;BME280;42486;47.478;19.036;2023-04-27T10:03:29;100598.94;;;13.37;32.85
56604;BME280;42486;47.478;19.036;2023-04-27T10:17:47;100575.44;;;14.50;34.45
56604;BME280;42486;47.478;19.036;2023-04-27T10:21:20;100588.53;;;15.41;33.79
56604;BME280;42486;47.478;19.036;2023-04-27T10:27:54;100574.34;;;16.00;32.43
56604;BME280;42486;47.478;19.036;2023-04-27T10:31:08;100572.53;;;16.01;29.34
56604;BME280;42486;47.478;19.036;2023-04-27T10:34:17;100575.91;;;15.83;30.25
56604;BME280;42486;47.478;19.036;2023-04-27T10:37:37;100575.16;;;16.48;29.46
56604;BME280;42486;47.478;19.036;2023-04-27T10:40:39;100577.47;;;16.61;29.44
56604;BME280;42486;47.478;19.036;2023-04-27T10:43:43;100581.19;;;15.83;29.67
56604;BME280;42486;47.478;19.036;2023-04-27T10:46:56;100569.13;;;15.91;29.88
56604;BME280;42486;47.478;19.036;2023-04-27T10:50:04;100575.38;;;15.80;30.54
56604;BME280;42486;47.478;19.036;2023-04-27T10:53:11;100576.34;;;15.30;30.76
56604;BME280;42486;47.478;19.036;2023-04-27T10:56:28;100568.22;;;14.83;33.77
56604;BME280;42486;47.478;19.036;2023-04-27T10:59:52;100570.94;;;14.52;33.66
56604;BME280;42486;47.478;19.036;2023-04-27T11:06:24;100563.56;;;14.25;32.29
56604;BME280;42486;47.478;19.036;2023-04-27T11:09:34;100561.47;;;13.88;32.14
56604;BME280;42486;47.478;19.036;2023-04-27T11:12:41;100563.38;;;14.07;31.52
56604;BME280;42486;47.478;19.036;2023-04-27T11:19:06;100555.06;;;13.81;32.04
56604;BME280;42486;47.478;19.036;2023-04-27T11:22:18;100562.41;;;13.87;32.37
56604;BME280;42486;47.478;19.036;2023-04-27T11:25:28;100552.56;;;14.41;32.98
56604;BME280;42486;47.478;19.036;2023-04-27T11:28:37;100563.19;;;15.30;32.16
56604;BME280;42486;47.478;19.036;2023-04-27T11:31:49;100551.31;;;16.12;31.07
56604;BME280;42486;47.478;19.036;2023-04-27T11:34:59;100558.13;;;16.33;29.41
56604;BME280;42486;47.478;19.036;2023-04-27T11:38:15;100554.56;;;15.67;29.75
56604;BME280;42486;47.478;19.036;2023-04-27T11:41:31;100557.91;;;15.59;31.17
56604;BME280;42486;47.478;19.036;2023-04-27T11:44:34;100551.78;;;15.88;30.40
56604;BME280;42486;47.478;19.036;2023-04-27T11:47:36;100554.84;;;15.54;31.71
56604;BME280;42486;47.478;19.036;2023-04-27T11:50:45;100547.53;;;15.48;33.13
56604;BME280;42486;47.478;19.036;2023-04-27T11:53:51;100552.66;;;15.40;32.28
56604;BME280;42486;47.478;19.036;2023-04-27T11:57:04;100554.44;;;15.39;30.24
56604;BME280;42486;47.478;19.036;2023-04-27T12:00:12;100547.50;;;15.68;30.06
56604;BME280;42486;47.478;19.036;2023-04-27T12:03:20;100565.09;;;15.57;31.22
56604;BME280;42486;47.478;19.036;2023-04-27T12:06:25;100547.22;;;15.80;29.23
56604;BME280;42486;47.478;19.036;2023-04-27T12:09:35;100546.56;;;16.43;32.60
56604;BME280;42486;47.478;19.036;2023-04-27T12:12:42;100544.72;;;16.54;29.24
56604;BME280;42486;47.478;19.036;2023-04-27T12:15:46;100547.50;;;15.58;29.69
56604;BME280;42486;47.478;19.036;2023-04-27T12:18:48;100548.06;;;15.13;31.54
56604;BME280;42486;47.478;19.036;2023-04-27T12:21:51;100548.19;;;15.21;31.60
56604;BME280;42486;47.478;19.036;2023-04-27T12:24:56;100542.34;;;15.66;31.52
56604;BME280;42486;47.478;19.036;2023-04-27T12:28:01;100549.28;;;15.48;31.09
56604;BME280;42486;47.478;19.036;2023-04-27T12:31:07;100546.53;;;15.69;30.21
56604;BME280;42486;47.478;19.036;2023-04-27T12:34:11;100538.50;;;15.12;30.58
56604;BME280;42486;47.478;19.036;2023-04-27T12:37:15;100535.56;;;15.05;30.67
56604;BME280;42486;47.478;19.036;2023-04-27T12:40:19;100546.28;;;15.13;30.04
56604;BME280;42486;47.478;19.036;2023-04-27T12:43:24;100548.69;;;14.66;31.15
56604;BME280;42486;47.478;19.036;2023-04-27T12:46:28;100548.84;;;14.74;31.33
56604;BME280;42486;47.478;19.036;2023-04-27T12:49:31;100544.12;;;14.78;31.15
56604;BME280;42486;47.478;19.036;2023-04-27T12:52:35;100555.59;;;14.67;31.75
56604;BME280;42486;47.478;19.036;2023-04-27T12:55:39;100539.19;;;14.44;32.04
56604;BME280;42486;47.478;19.036;2023-04-27T12:58:42;100542.25;;;14.19;31.45
56604;BME280;42486;47.478;19.036;2023-04-27T13:01:45;100549.28;;;14.49;32.25
56604;BME280;42486;47.478;19.036;2023-04-27T13:04:49;100539.75;;;14.98;31.33
56604;BME280;42486;47.478;19.036;2023-04-27T13:07:52;100553.13;;;14.66;31.72
56604;BME280;42486;47.478;19.036;2023-04-27T13:10:55;100545.00;;;14.17;31.74
56604;BME280;42486;47.478;19.036;2023-04-27T13:14:00;100547.06;;;14.44;33.75
56604;BME280;42486;47.478;19.036;2023-04-27T13:17:03;100548.28;;;14.40;32.59
56604;BME280;42486;47.478;19.036;2023-04-27T13:20:07;100537.19;;;14.67;31.27
56604;BME280;42486;47.478;19.036;2023-04-27T13:23:11;100541.13;;;14.92;31.49
56604;BME280;42486;47.478;19.036;2023-04-27T13:26:15;100535.59;;;15.34;32.41
56604;BME280;42486;47.478;19.036;2023-04-27T13:29:19;100536.84;;;15.69;31.60
56604;BME280;42486;47.478;19.036;2023-04-27T13:32:25;100538.63;;;15.78;29.78
56604;BME280;42486;47.478;19.036;2023-04-27T13:35:29;100540.72;;;15.46;29.47
56604;BME280;42486;47.478;19.036;2023-04-27T13:38:32;100544.44;;;15.53;30.51
56604;BME280;42486;47.478;19.036;2023-04-27T13:41:35;100541.56;;;15.56;30.87
56604;BME280;42486;47.478;19.036;2023-04-27T13:44:38;100546.41;;;15.51;30.40
56604;BME280;42486;47.478;19.036;2023-04-27T13:47:41;100541.69;;;15.74;30.40
56604;BME280;42486;47.478;19.036;2023-04-27T13:50:45;100540.97;;;15.52;29.44
56604;BME280;42486;47.478;19.036;2023-04-27T13:53:50;100544.19;;;15.46;31.00
56604;BME280;42486;47.478;19.036;2023-04-27T13:56:53;100528.78;;;15.80;29.25
56604;BME280;42486;47.478;19.036;2023-04-27T13:59:56;100543.09;;;15.29;30.16
56604;BME280;42486;47.478;19.036;2023-04-27T14:03:01;100533.94;;;15.72;31.01
56604;BME280;42486;47.478;19.036;2023-04-27T14:06:06;100536.25;;;15.85;29.30
56604;BME280;42486;47.478;19.036;2023-04-27T14:09:10;100534.16;;;15.89;29.69
56604;BME280;42486;47.478;19.036;2023-04-27T14:12:14;100534.22;;;15.69;29.98
56604;BME280;42486;47.478;19.036;2023-04-27T14:15:17;100547.88;;;15.92;29.63
56604;BME280;42486;47.478;19.036;2023-04-27T14:18:21;100546.66;;;15.67;31.12
56604;BME280;42486;47.478;19.036;2023-04-27T14:21:33;100543.03;;;15.58;28.82
56604;BME280;42486;47.478;19.036;2023-04-27T14:24:36;100557.19;;;15.77;29.19
56604;BME280;42486;47.478;19.036;2023-04-27T14:27:39;100558.16;;;15.66;28.23
56604;BME280;42486;47.478;19.036;2023-04-27T14:30:42;100550.28;;;15.27;27.79
56604;BME280;42486;47.478;19.036;2023-04-27T14:33:46;100556.09;;;15.11;28.81
56604;BME280;42486;47.478;19.036;2023-04-27T14:36:53;100557.62;;;15.14;29.76
56604;BME280;42486;47.478;19.036;2023-04-27T14:39:59;100559.00;;;15.08;29.93
56604;BME280;42486;47.478;19.036;2023-04-27T14:43:05;100552.06;;;14.97;29.52
56604;BME280;42486;47.478;19.036;2023-04-27T14:46:11;100547.78;;;14.87;30.21
56604;BME280;42486;47.478;19.036;2023-04-27T14:49:22;100553.16;;;15.05;29.66
56604;BME280;42486;47.478;19.036;2023-04-27T14:52:25;100559.97;;;15.17;31.25
56604;BME280;42486;47.478;19.036;2023-04-27T14:55:28;100546.09;;;15.05;30.02
56604;BME280;42486;47.478;19.036;2023-04-27T14:58:34;100559.81;;;15.18;31.51
56604;BME280;42486;47.478;19.036;2023-04-27T15:01:37;100552.09;;;15.17;29.64
56604;BME280;42486;47.478;19.036;2023-04-27T15:04:41;100561.31;;;14.92;30.01
56604;BME280;42486;47.478;19.036;2023-04-27T15:07:44;100560.06;;;14.86;30.35
56604;BME280;42486;47.478;19.036;2023-04-27T15:10:47;100556.97;;;14.62;30.99
56604;BME280;42486;47.478;19.036;2023-04-27T15:13:52;100554.38;;;14.81;30.92
56604;BME280;42486;47.478;19.036;2023-04-27T15:16:56;100560.78;;;14.88;30.24
56604;BME280;42486;47.478;19.036;2023-04-27T15:20:01;100555.37;;;14.90;30.13
56604;BME280;42486;47.478;19.036;2023-04-27T15:23:04;100555.31;;;14.61;30.26
56604;BME280;42486;47.478;19.036;2023-04-27T15:26:07;100560.13;;;14.56;31.60
56604;BME280;42486;47.478;19.036;2023-04-27T15:29:12;100557.78;;;14.52;30.95
56604;BME280;42486;47.478;19.036;2023-04-27T15:32:15;100550.56;;;14.54;30.96
56604;BME280;42486;47.478;19.036;2023-04-27T15:35:19;100552.53;;;14.62;32.12
56604;BME280;42486;47.478;19.036;2023-04-27T15:38:23;100557.94;;;14.70;33.26
56604;BME280;42486;47.478;19.036;2023-04-27T15:41:26;100550.22;;;14.69;31.85
56604;BME280;42486;47.478;19.036;2023-04-27T15:44:30;100553.75;;;14.27;31.79
56604;BME280;42486;47.478;19.036;2023-04-27T15:47:33;100546.34;;;14.02;32.08
56604;BME280;42486;47.478;19.036;2023-04-27T15:50:36;100551.00;;;13.98;32.46
56604;BME280;42486;47.478;19.036;2023-04-27T15:53:40;100544.00;;;14.08;32.32
56604;BME280;42486;47.478;19.036;2023-04-27T15:56:43;100555.31;;;13.99;31.88
56604;BME280;42486;47.478;19.036;2023-04-27T15:59:46;100559.22;;;13.84;31.69
56604;BME280;42486;47.478;19.036;2023-04-27T16:02:49;100553.44;;;13.69;32.17
56604;BME280;42486;47.478;19.036;2023-04-27T16:05:52;100549.09;;;13.79;32.82
56604;BME280;42486;47.478;19.036;2023-04-27T16:08:55;100547.75;;;13.85;32.15
56604;BME280;42486;47.478;19.036;2023-04-27T16:11:58;100549.34;;;13.76;32.39
56604;BME280;42486;47.478;19.036;2023-04-27T16:15:01;100550.81;;;13.69;33.94
56604;BME280;42486;47.478;19.036;2023-04-27T16:18:04;100547.25;;;13.70;32.57
56604;BME280;42486;47.478;19.036;2023-04-27T16:21:07;100565.03;;;13.66;33.63
56604;BME280;42486;47.478;19.036;2023-04-27T16:24:12;100562.47;;;13.55;32.66
56604;BME280;42486;47.478;19.036;2023-04-27T16:27:15;100567.22;;;13.40;33.21
56604;BME280;42486;47.478;19.036;2023-04-27T16:30:18;100561.09;;;13.40;32.99